sensor_id;sensor_type;location;lat;lon;timestamp;temperature;humidity
674;DHT22;319;48.764;9.174;2022-11-15T00:00:47;11.20;99.90
674;DHT22;319;48.764;9.174;2022-11-15T00:03:15;11.20;99.90
674;DHT22;319;48.764;9.174;2022-11-15T00:05:42;11.20;99.90
674;DHT22;319;48.764;9.174;2022-11-15T00:08:10;11.20;99.90
674;DHT22;319;48.764;9.174;2022-11-15T00:10:37;11.20;99.90
674;DHT22;319;48.764;9.174;2022-11-15T00:13:05;11.30;99.90
674;DHT22;319;48.764;9.174;2022-11-15T00:15:35;11.30;99.90
674;DHT22;319;48.764;9.174;2022-11-15T00:18:03;11.30;99.90
674;DHT22;319;48.764;9.174;2022-11-15T00:20:30;11.30;99.90
674;DHT22;319;48.764;9.174;2022-11-15T00:22:57;11.30;99.90
674;DHT22;319;48.764;9.174;2022-11-15T00:25:25;11.30;99.90
674;DHT22;319;48.764;9.174;2022-11-15T00:27:55;11.40;99.90
674;DHT22;319;48.764;9.174;2022-11-15T00:30:22;11.60;99.90
674;DHT22;319;48.764;9.174;2022-11-15T00:32:48;11.50;99.90
674;DHT22;319;48.764;9.174;2022-11-15T00:35:15;11.60;99.90
674;DHT22;319;48.764;9.174;2022-11-15T00:37:42;11.70;99.90
674;DHT22;319;48.764;9.174;2022-11-15T00:40:10;11.70;99.90
674;DHT22;319;48.764;9.174;2022-11-15T00:42:39;11.50;99.90
674;DHT22;319;48.764;9.174;2022-11-15T00:45:07;11.40;99.90
674;DHT22;319;48.764;9.174;2022-11-15T00:47:34;11.40;99.90
674;DHT22;319;48.764;9.174;2022-11-15T00:50:01;11.30;99.90
674;DHT22;319;48.764;9.174;2022-11-15T00:52:27;11.30;99.90
674;DHT22;319;48.764;9.174;2022-11-15T00:54:54;11.30;99.90
674;DHT22;319;48.764;9.174;2022-11-15T00:57:21;11.30;99.90
674;DHT22;319;48.764;9.174;2022-11-15T00:59:49;11.20;99.90
674;DHT22;319;48.764;9.174;2022-11-15T01:02:16;11.20;99.90
674;DHT22;319;48.764;9.174;2022-11-15T01:04:42;11.20;99.90
674;DHT22;319;48.764;9.174;2022-11-15T01:07:09;11.10;99.90
674;DHT22;319;48.764;9.174;2022-11-15T01:09:36;11.10;99.90
674;DHT22;319;48.764;9.174;2022-11-15T01:12:03;11.10;99.90
674;DHT22;319;48.764;9.174;2022-11-15T01:14:30;11.10;99.90
674;DHT22;319;48.764;9.174;2022-11-15T01:16:58;11.10;99.90
674;DHT22;319;48.764;9.174;2022-11-15T01:19:25;11.10;99.90
674;DHT22;319;48.764;9.174;2022-11-15T01:21:52;11.10;99.90
674;DHT22;319;48.764;9.174;2022-11-15T01:24:19;11.10;99.90
674;DHT22;319;48.764;9.174;2022-11-15T01:26:45;11.00;99.90
674;DHT22;319;48.764;9.174;2022-11-15T01:29:12;10.90;99.90
674;DHT22;319;48.764;9.174;2022-11-15T01:31:39;10.90;99.90
674;DHT22;319;48.764;9.174;2022-11-15T01:34:07;10.80;99.90
674;DHT22;319;48.764;9.174;2022-11-15T01:36:34;10.80;99.90
674;DHT22;319;48.764;9.174;2022-11-15T01:39:01;10.60;99.90
674;DHT22;319;48.764;9.174;2022-11-15T01:41:31;10.70;99.90
674;DHT22;319;48.764;9.174;2022-11-15T01:47:05;10.50;99.90
674;DHT22;319;48.764;9.174;2022-11-15T01:49:38;10.40;99.90
674;DHT22;319;48.764;9.174;2022-11-15T01:52:09;10.40;99.90
674;DHT22;319;48.764;9.174;2022-11-15T01:54:37;10.30;99.90
674;DHT22;319;48.764;9.174;2022-11-15T01:57:06;10.20;99.90
674;DHT22;319;48.764;9.174;2022-11-15T01:59:35;10.20;99.90
674;DHT22;319;48.764;9.174;2022-11-15T02:02:02;10.20;99.90
674;DHT22;319;48.764;9.174;2022-11-15T02:04:32;10.10;99.90
674;DHT22;319;48.764;9.174;2022-11-15T02:07:02;10.10;99.90
674;DHT22;319;48.764;9.174;2022-11-15T02:09:29;10.10;99.90
674;DHT22;319;48.764;9.174;2022-11-15T02:11:56;10.10;99.90
674;DHT22;319;48.764;9.174;2022-11-15T02:14:25;10.10;99.90
674;DHT22;319;48.764;9.174;2022-11-15T02:16:59;10.20;99.90
674;DHT22;319;48.764;9.174;2022-11-15T02:19:40;10.20;99.90
674;DHT22;319;48.764;9.174;2022-11-15T02:22:27;10.20;99.90
674;DHT22;319;48.764;9.174;2022-11-15T02:25:03;10.10;99.90
674;DHT22;319;48.764;9.174;2022-11-15T02:28:05;10.20;99.90
674;DHT22;319;48.764;9.174;2022-11-15T02:30:41;10.10;99.90
674;DHT22;319;48.764;9.174;2022-11-15T02:33:18;10.20;99.90
674;DHT22;319;48.764;9.174;2022-11-15T02:35:55;10.20;99.90
674;DHT22;319;48.764;9.174;2022-11-15T02:38:31;10.20;99.90
674;DHT22;319;48.764;9.174;2022-11-15T02:41:02;10.20;99.90
674;DHT22;319;48.764;9.174;2022-11-15T02:43:36;10.10;99.90
674;DHT22;319;48.764;9.174;2022-11-15T02:46:26;10.10;99.90
674;DHT22;319;48.764;9.174;2022-11-15T02:49:09;10.10;99.90
674;DHT22;319;48.764;9.174;2022-11-15T02:51:36;10.10;99.90
674;DHT22;319;48.764;9.174;2022-11-15T02:54:03;10.10;99.90
674;DHT22;319;48.764;9.174;2022-11-15T02:56:30;10.10;99.90
674;DHT22;319;48.764;9.174;2022-11-15T02:59:18;10.10;99.90
674;DHT22;319;48.764;9.174;2022-11-15T03:01:56;10.10;99.90
674;DHT22;319;48.764;9.174;2022-11-15T03:04:33;10.10;99.90
674;DHT22;319;48.764;9.174;2022-11-15T03:07:07;10.20;99.90
674;DHT22;319;48.764;9.174;2022-11-15T03:09:40;10.20;99.90
674;DHT22;319;48.764;9.174;2022-11-15T03:12:12;10.20;99.90
674;DHT22;319;48.764;9.174;2022-11-15T03:14:46;10.20;99.90
674;DHT22;319;48.764;9.174;2022-11-15T03:17:23;10.10;99.90
674;DHT22;319;48.764;9.174;2022-11-15T03:19:54;10.10;99.90
674;DHT22;319;48.764;9.174;2022-11-15T03:22:24;10.00;99.90
674;DHT22;319;48.764;9.174;2022-11-15T03:24:54;10.00;99.90
674;DHT22;319;48.764;9.174;2022-11-15T03:27:25;10.00;99.90
674;DHT22;319;48.764;9.174;2022-11-15T03:29:56;9.90;99.90
674;DHT22;319;48.764;9.174;2022-11-15T03:32:27;9.90;99.90
674;DHT22;319;48.764;9.174;2022-11-15T03:34:58;9.90;99.90
674;DHT22;319;48.764;9.174;2022-11-15T03:37:30;9.80;99.90
674;DHT22;319;48.764;9.174;2022-11-15T03:39:58;9.80;99.90
674;DHT22;319;48.764;9.174;2022-11-15T03:42:35;9.80;99.90
674;DHT22;319;48.764;9.174;2022-11-15T03:45:10;9.90;99.90
674;DHT22;319;48.764;9.174;2022-11-15T03:47:44;9.80;99.90
674;DHT22;319;48.764;9.174;2022-11-15T03:50:14;9.90;99.90
674;DHT22;319;48.764;9.174;2022-11-15T03:52:42;9.90;99.90
674;DHT22;319;48.764;9.174;2022-11-15T03:55:13;9.90;99.90
674;DHT22;319;48.764;9.174;2022-11-15T03:57:40;10.00;99.90
674;DHT22;319;48.764;9.174;2022-11-15T04:00:08;10.10;99.90
674;DHT22;319;48.764;9.174;2022-11-15T04:02:36;10.10;99.90
674;DHT22;319;48.764;9.174;2022-11-15T04:05:04;10.10;99.90
674;DHT22;319;48.764;9.174;2022-11-15T04:07:31;10.10;99.90
674;DHT22;319;48.764;9.174;2022-11-15T04:09:58;10.10;99.90
674;DHT22;319;48.764;9.174;2022-11-15T04:12:32;10.20;99.90
674;DHT22;319;48.764;9.174;2022-11-15T04:15:01;10.10;99.90
674;DHT22;319;48.764;9.174;2022-11-15T04:17:34;10.10;99.90
674;DHT22;319;48.764;9.174;2022-11-15T04:20:04;10.10;99.90
674;DHT22;319;48.764;9.174;2022-11-15T04:22:49;10.10;99.90
674;DHT22;319;48.764;9.174;2022-11-15T04:25:35;10.10;99.90
674;DHT22;319;48.764;9.174;2022-11-15T04:28:02;10.10;99.90
674;DHT22;319;48.764;9.174;2022-11-15T04:30:29;10.10;99.90
674;DHT22;319;48.764;9.174;2022-11-15T04:32:56;10.10;99.90
674;DHT22;319;48.764;9.174;2022-11-15T04:35:24;10.10;99.90
674;DHT22;319;48.764;9.174;2022-11-15T04:37:51;10.10;99.90
674;DHT22;319;48.764;9.174;2022-11-15T04:40:18;10.10;99.90
674;DHT22;319;48.764;9.174;2022-11-15T04:42:45;10.10;99.90
674;DHT22;319;48.764;9.174;2022-11-15T04:45:12;10.10;99.90
674;DHT22;319;48.764;9.174;2022-11-15T04:47:39;10.10;99.90
674;DHT22;319;48.764;9.174;2022-11-15T04:50:06;10.10;99.90
674;DHT22;319;48.764;9.174;2022-11-15T04:52:34;10.10;99.90
674;DHT22;319;48.764;9.174;2022-11-15T04:55:01;10.00;99.90
674;DHT22;319;48.764;9.174;2022-11-15T04:57:28;10.00;99.90
674;DHT22;319;48.764;9.174;2022-11-15T04:59:55;9.90;99.90
674;DHT22;319;48.764;9.174;2022-11-15T05:02:21;9.90;99.90
674;DHT22;319;48.764;9.174;2022-11-15T05:04:48;9.90;99.90
674;DHT22;319;48.764;9.174;2022-11-15T05:07:14;9.90;99.90
674;DHT22;319;48.764;9.174;2022-11-15T05:09:42;9.80;99.90
674;DHT22;319;48.764;9.174;2022-11-15T05:12:09;9.80;99.90
674;DHT22;319;48.764;9.174;2022-11-15T05:14:35;9.80;99.90
674;DHT22;319;48.764;9.174;2022-11-15T05:17:02;9.80;99.90
674;DHT22;319;48.764;9.174;2022-11-15T05:19:29;9.80;99.90
674;DHT22;319;48.764;9.174;2022-11-15T05:21:56;9.80;99.90
674;DHT22;319;48.764;9.174;2022-11-15T05:24:22;9.90;99.90
674;DHT22;319;48.764;9.174;2022-11-15T05:26:50;9.80;99.90
674;DHT22;319;48.764;9.174;2022-11-15T05:29:17;9.80;99.90
674;DHT22;319;48.764;9.174;2022-11-15T05:31:44;9.80;99.90
674;DHT22;319;48.764;9.174;2022-11-15T05:34:11;9.70;99.90
674;DHT22;319;48.764;9.174;2022-11-15T05:36:38;9.70;99.90
674;DHT22;319;48.764;9.174;2022-11-15T05:39:08;9.70;99.90
674;DHT22;319;48.764;9.174;2022-11-15T05:41:38;9.70;99.90
674;DHT22;319;48.764;9.174;2022-11-15T05:44:10;9.70;99.90
674;DHT22;319;48.764;9.174;2022-11-15T05:46:39;9.70;99.90
674;DHT22;319;48.764;9.174;2022-11-15T05:49:09;9.70;99.90
674;DHT22;319;48.764;9.174;2022-11-15T05:51:36;9.80;99.90
674;DHT22;319;48.764;9.174;2022-11-15T05:54:03;9.80;99.90
674;DHT22;319;48.764;9.174;2022-11-15T05:56:30;9.80;99.90
674;DHT22;319;48.764;9.174;2022-11-15T05:58:57;10.00;99.90
674;DHT22;319;48.764;9.174;2022-11-15T06:01:26;9.90;99.90
674;DHT22;319;48.764;9.174;2022-11-15T06:03:54;9.90;99.90
674;DHT22;319;48.764;9.174;2022-11-15T06:06:20;9.90;99.90
674;DHT22;319;48.764;9.174;2022-11-15T06:08:47;10.00;99.90
674;DHT22;319;48.764;9.174;2022-11-15T06:11:14;10.00;99.90
674;DHT22;319;48.764;9.174;2022-11-15T06:13:41;10.00;99.90
674;DHT22;319;48.764;9.174;2022-11-15T06:16:07;10.10;99.90
674;DHT22;319;48.764;9.174;2022-11-15T06:18:36;10.00;99.90
674;DHT22;319;48.764;9.174;2022-11-15T06:21:04;10.00;99.90
674;DHT22;319;48.764;9.174;2022-11-15T06:23:32;10.00;99.90
674;DHT22;319;48.764;9.174;2022-11-15T06:25:59;10.10;99.90
674;DHT22;319;48.764;9.174;2022-11-15T06:28:28;10.10;99.90
674;DHT22;319;48.764;9.174;2022-11-15T06:30:55;10.10;99.90
674;DHT22;319;48.764;9.174;2022-11-15T06:33:22;10.10;99.90
674;DHT22;319;48.764;9.174;2022-11-15T06:35:50;10.10;99.90
674;DHT22;319;48.764;9.174;2022-11-15T06:38:17;10.20;99.90
674;DHT22;319;48.764;9.174;2022-11-15T06:40:44;10.20;99.90
674;DHT22;319;48.764;9.174;2022-11-15T06:43:11;10.20;99.90
674;DHT22;319;48.764;9.174;2022-11-15T06:45:38;10.20;99.90
674;DHT22;319;48.764;9.174;2022-11-15T06:48:05;10.30;99.90
674;DHT22;319;48.764;9.174;2022-11-15T06:53:04;10.30;99.90
674;DHT22;319;48.764;9.174;2022-11-15T06:55:31;10.30;99.90
674;DHT22;319;48.764;9.174;2022-11-15T06:57:58;10.40;99.90
674;DHT22;319;48.764;9.174;2022-11-15T07:02:52;10.40;99.90
674;DHT22;319;48.764;9.174;2022-11-15T07:05:18;10.40;99.90
674;DHT22;319;48.764;9.174;2022-11-15T07:07:51;10.40;99.90
674;DHT22;319;48.764;9.174;2022-11-15T07:10:20;10.40;99.90
674;DHT22;319;48.764;9.174;2022-11-15T07:12:50;10.50;99.90
674;DHT22;319;48.764;9.174;2022-11-15T07:15:17;10.50;99.90
674;DHT22;319;48.764;9.174;2022-11-15T07:17:44;10.60;99.90
674;DHT22;319;48.764;9.174;2022-11-15T07:20:12;10.60;99.90
674;DHT22;319;48.764;9.174;2022-11-15T07:22:40;10.60;99.90
674;DHT22;319;48.764;9.174;2022-11-15T07:25:08;10.60;99.90
674;DHT22;319;48.764;9.174;2022-11-15T07:27:36;10.70;99.90
674;DHT22;319;48.764;9.174;2022-11-15T07:30:04;10.80;99.90
674;DHT22;319;48.764;9.174;2022-11-15T07:32:32;10.90;99.90
674;DHT22;319;48.764;9.174;2022-11-15T07:34:58;11.00;99.90
674;DHT22;319;48.764;9.174;2022-11-15T07:37:25;11.10;99.90
674;DHT22;319;48.764;9.174;2022-11-15T07:39:52;11.30;99.90
674;DHT22;319;48.764;9.174;2022-11-15T07:42:19;11.40;99.90
674;DHT22;319;48.764;9.174;2022-11-15T07:45:05;11.50;99.90
674;DHT22;319;48.764;9.174;2022-11-15T07:47:32;11.70;99.90
674;DHT22;319;48.764;9.174;2022-11-15T07:49:59;11.90;99.90
674;DHT22;319;48.764;9.174;2022-11-15T07:52:26;12.00;99.90
674;DHT22;319;48.764;9.174;2022-11-15T07:54:52;12.10;99.90
674;DHT22;319;48.764;9.174;2022-11-15T07:57:19;12.30;99.90
674;DHT22;319;48.764;9.174;2022-11-15T07:59:46;12.50;99.90
674;DHT22;319;48.764;9.174;2022-11-15T08:02:14;12.70;99.90
674;DHT22;319;48.764;9.174;2022-11-15T08:04:43;13.00;99.90
674;DHT22;319;48.764;9.174;2022-11-15T08:07:10;13.20;99.90
674;DHT22;319;48.764;9.174;2022-11-15T08:09:37;13.30;99.90
674;DHT22;319;48.764;9.174;2022-11-15T08:12:04;13.40;99.90
674;DHT22;319;48.764;9.174;2022-11-15T08:14:31;13.50;99.90
674;DHT22;319;48.764;9.174;2022-11-15T08:16:57;13.80;99.90
674;DHT22;319;48.764;9.174;2022-11-15T08:19:26;13.90;99.80
674;DHT22;319;48.764;9.174;2022-11-15T08:21:53;14.10;99.60
674;DHT22;319;48.764;9.174;2022-11-15T08:24:19;14.30;99.00
674;DHT22;319;48.764;9.174;2022-11-15T08:26:46;14.30;98.60
674;DHT22;319;48.764;9.174;2022-11-15T08:29:13;14.30;98.60
674;DHT22;319;48.764;9.174;2022-11-15T08:31:40;14.30;98.60
674;DHT22;319;48.764;9.174;2022-11-15T08:34:07;14.50;98.60
674;DHT22;319;48.764;9.174;2022-11-15T08:36:35;14.60;98.50
674;DHT22;319;48.764;9.174;2022-11-15T08:39:02;14.60;98.20
674;DHT22;319;48.764;9.174;2022-11-15T08:41:32;14.70;97.80
674;DHT22;319;48.764;9.174;2022-11-15T08:44:00;14.70;97.70
674;DHT22;319;48.764;9.174;2022-11-15T08:46:27;14.80;97.70
674;DHT22;319;48.764;9.174;2022-11-15T08:48:54;14.90;97.70
674;DHT22;319;48.764;9.174;2022-11-15T08:51:21;14.90;97.60
674;DHT22;319;48.764;9.174;2022-11-15T08:53:49;14.90;97.50
674;DHT22;319;48.764;9.174;2022-11-15T08:56:16;15.00;97.40
674;DHT22;319;48.764;9.174;2022-11-15T08:58:42;14.90;97.20
674;DHT22;319;48.764;9.174;2022-11-15T09:01:15;14.80;97.60
674;DHT22;319;48.764;9.174;2022-11-15T09:03:42;14.90;97.70
674;DHT22;319;48.764;9.174;2022-11-15T09:06:09;14.90;97.40
674;DHT22;319;48.764;9.174;2022-11-15T09:08:36;15.00;97.30
674;DHT22;319;48.764;9.174;2022-11-15T09:11:05;15.20;97.10
674;DHT22;319;48.764;9.174;2022-11-15T09:13:32;15.40;97.10
674;DHT22;319;48.764;9.174;2022-11-15T09:15:59;15.70;96.70
674;DHT22;319;48.764;9.174;2022-11-15T09:18:27;15.90;96.10
674;DHT22;319;48.764;9.174;2022-11-15T09:20:55;16.00;95.80
674;DHT22;319;48.764;9.174;2022-11-15T09:23:23;16.20;95.40
674;DHT22;319;48.764;9.174;2022-11-15T09:25:50;16.30;95.10
674;DHT22;319;48.764;9.174;2022-11-15T09:28:18;16.40;95.00
674;DHT22;319;48.764;9.174;2022-11-15T09:30:45;16.50;94.70
674;DHT22;319;48.764;9.174;2022-11-15T09:33:12;16.50;94.10
674;DHT22;319;48.764;9.174;2022-11-15T09:35:39;16.60;94.40
674;DHT22;319;48.764;9.174;2022-11-15T09:38:07;16.70;94.40
674;DHT22;319;48.764;9.174;2022-11-15T09:40:36;16.90;94.10
674;DHT22;319;48.764;9.174;2022-11-15T09:43:11;17.00;93.90
674;DHT22;319;48.764;9.174;2022-11-15T09:45:52;17.00;93.60
674;DHT22;319;48.764;9.174;2022-11-15T09:48:38;17.10;93.60
674;DHT22;319;48.764;9.174;2022-11-15T09:51:13;17.10;93.50
674;DHT22;319;48.764;9.174;2022-11-15T09:53:49;17.20;93.30
674;DHT22;319;48.764;9.174;2022-11-15T09:56:20;17.20;93.40
674;DHT22;319;48.764;9.174;2022-11-15T09:58:54;17.20;93.50
674;DHT22;319;48.764;9.174;2022-11-15T10:01:39;17.30;93.00
674;DHT22;319;48.764;9.174;2022-11-15T10:04:08;17.20;91.90
674;DHT22;319;48.764;9.174;2022-11-15T10:06:38;17.30;92.40
674;DHT22;319;48.764;9.174;2022-11-15T10:09:09;17.40;91.90
674;DHT22;319;48.764;9.174;2022-11-15T10:11:39;17.50;92.10
674;DHT22;319;48.764;9.174;2022-11-15T10:14:11;17.60;92.20
674;DHT22;319;48.764;9.174;2022-11-15T10:17:09;17.70;92.10
674;DHT22;319;48.764;9.174;2022-11-15T10:19:50;17.70;91.80
674;DHT22;319;48.764;9.174;2022-11-15T10:22:25;17.70;91.90
674;DHT22;319;48.764;9.174;2022-11-15T10:24:58;17.70;91.70
674;DHT22;319;48.764;9.174;2022-11-15T10:27:26;17.60;91.70
674;DHT22;319;48.764;9.174;2022-11-15T10:29:53;17.60;91.70
674;DHT22;319;48.764;9.174;2022-11-15T10:32:22;17.70;91.90
674;DHT22;319;48.764;9.174;2022-11-15T10:34:49;17.60;91.70
674;DHT22;319;48.764;9.174;2022-11-15T10:37:27;17.60;91.80
674;DHT22;319;48.764;9.174;2022-11-15T10:40:04;17.70;92.00
674;DHT22;319;48.764;9.174;2022-11-15T10:42:31;17.70;92.00
674;DHT22;319;48.764;9.174;2022-11-15T10:44:58;17.70;92.00
674;DHT22;319;48.764;9.174;2022-11-15T10:47:28;17.80;92.00
674;DHT22;319;48.764;9.174;2022-11-15T10:49:59;17.80;91.90
674;DHT22;319;48.764;9.174;2022-11-15T10:52:27;17.70;92.30
674;DHT22;319;48.764;9.174;2022-11-15T10:54:58;17.80;92.30
674;DHT22;319;48.764;9.174;2022-11-15T10:57:31;17.80;92.20
674;DHT22;319;48.764;9.174;2022-11-15T11:00:02;17.80;92.10
674;DHT22;319;48.764;9.174;2022-11-15T11:02:34;17.90;92.20
674;DHT22;319;48.764;9.174;2022-11-15T11:05:03;18.00;92.20
674;DHT22;319;48.764;9.174;2022-11-15T11:07:31;17.90;92.00
674;DHT22;319;48.764;9.174;2022-11-15T11:10:02;17.90;92.10
674;DHT22;319;48.764;9.174;2022-11-15T11:12:30;17.90;92.10
674;DHT22;319;48.764;9.174;2022-11-15T11:14:59;17.80;92.00
674;DHT22;319;48.764;9.174;2022-11-15T11:17:41;17.60;92.30
674;DHT22;319;48.764;9.174;2022-11-15T11:20:17;17.40;92.70
674;DHT22;319;48.764;9.174;2022-11-15T11:22:56;17.30;93.10
674;DHT22;319;48.764;9.174;2022-11-15T11:25:30;17.20;93.50
674;DHT22;319;48.764;9.174;2022-11-15T11:28:11;17.10;93.70
674;DHT22;319;48.764;9.174;2022-11-15T11:30:53;17.10;93.80
674;DHT22;319;48.764;9.174;2022-11-15T11:33:47;17.10;93.90
674;DHT22;319;48.764;9.174;2022-11-15T11:36:36;17.40;94.30
674;DHT22;319;48.764;9.174;2022-11-15T11:39:21;17.10;93.80
674;DHT22;319;48.764;9.174;2022-11-15T11:44:34;17.10;94.00
674;DHT22;319;48.764;9.174;2022-11-15T11:47:09;17.20;94.20
674;DHT22;319;48.764;9.174;2022-11-15T11:49:42;17.20;94.10
674;DHT22;319;48.764;9.174;2022-11-15T11:52:13;17.30;94.20
674;DHT22;319;48.764;9.174;2022-11-15T11:54:47;17.40;94.00
674;DHT22;319;48.764;9.174;2022-11-15T11:57:25;17.60;93.90
674;DHT22;319;48.764;9.174;2022-11-15T12:00:00;17.60;93.70
674;DHT22;319;48.764;9.174;2022-11-15T12:02:30;17.60;93.60
674;DHT22;319;48.764;9.174;2022-11-15T12:05:07;17.70;93.60
674;DHT22;319;48.764;9.174;2022-11-15T12:07:35;17.70;93.70
674;DHT22;319;48.764;9.174;2022-11-15T12:10:05;17.70;93.50
674;DHT22;319;48.764;9.174;2022-11-15T12:12:45;17.70;93.20
674;DHT22;319;48.764;9.174;2022-11-15T12:15:17;17.80;93.40
674;DHT22;319;48.764;9.174;2022-11-15T12:17:45;17.80;93.60
674;DHT22;319;48.764;9.174;2022-11-15T12:20:18;17.90;93.60
674;DHT22;319;48.764;9.174;2022-11-15T12:22:52;18.00;93.30
674;DHT22;319;48.764;9.174;2022-11-15T12:25:22;18.00;93.60
674;DHT22;319;48.764;9.174;2022-11-15T12:27:54;17.90;93.30
674;DHT22;319;48.764;9.174;2022-11-15T12:30:23;17.80;93.30
674;DHT22;319;48.764;9.174;2022-11-15T12:32:54;17.80;93.50
674;DHT22;319;48.764;9.174;2022-11-15T12:35:28;17.70;93.90
674;DHT22;319;48.764;9.174;2022-11-15T12:37:57;17.60;93.90
674;DHT22;319;48.764;9.174;2022-11-15T12:40:37;17.50;94.20
674;DHT22;319;48.764;9.174;2022-11-15T12:43:35;17.40;94.20
674;DHT22;319;48.764;9.174;2022-11-15T12:46:04;17.20;94.30
674;DHT22;319;48.764;9.174;2022-11-15T12:48:59;17.10;94.70
674;DHT22;319;48.764;9.174;2022-11-15T12:54:54;16.80;95.30
674;DHT22;319;48.764;9.174;2022-11-15T12:57:29;16.70;95.60
674;DHT22;319;48.764;9.174;2022-11-15T12:59:57;16.70;95.70
674;DHT22;319;48.764;9.174;2022-11-15T13:02:29;16.70;95.70
674;DHT22;319;48.764;9.174;2022-11-15T13:08:42;16.60;95.90
674;DHT22;319;48.764;9.174;2022-11-15T13:11:49;16.50;96.00
674;DHT22;319;48.764;9.174;2022-11-15T13:14:45;16.40;96.40
674;DHT22;319;48.764;9.174;2022-11-15T13:17:31;16.50;96.40
674;DHT22;319;48.764;9.174;2022-11-15T13:20:19;16.50;96.60
674;DHT22;319;48.764;9.174;2022-11-15T13:22:48;16.60;96.70
674;DHT22;319;48.764;9.174;2022-11-15T13:25:40;16.60;96.80
674;DHT22;319;48.764;9.174;2022-11-15T13:28:20;16.60;96.80
674;DHT22;319;48.764;9.174;2022-11-15T13:30:52;16.60;96.80
674;DHT22;319;48.764;9.174;2022-11-15T13:33:25;16.50;96.90
674;DHT22;319;48.764;9.174;2022-11-15T13:35:56;16.50;96.90
674;DHT22;319;48.764;9.174;2022-11-15T13:38:27;16.40;96.80
674;DHT22;319;48.764;9.174;2022-11-15T13:40:58;16.40;96.60
674;DHT22;319;48.764;9.174;2022-11-15T13:43:33;16.30;96.70
674;DHT22;319;48.764;9.174;2022-11-15T13:46:21;16.30;96.50
674;DHT22;319;48.764;9.174;2022-11-15T13:48:52;16.30;96.50
674;DHT22;319;48.764;9.174;2022-11-15T13:51:31;16.30;96.50
674;DHT22;319;48.764;9.174;2022-11-15T13:54:02;16.30;96.50
674;DHT22;319;48.764;9.174;2022-11-15T13:56:30;16.40;96.40
674;DHT22;319;48.764;9.174;2022-11-15T13:59:01;16.30;96.50
674;DHT22;319;48.764;9.174;2022-11-15T14:01:34;16.20;97.00
674;DHT22;319;48.764;9.174;2022-11-15T14:04:01;16.10;97.50
674;DHT22;319;48.764;9.174;2022-11-15T14:06:30;16.00;98.10
674;DHT22;319;48.764;9.174;2022-11-15T14:09:00;15.80;98.50
674;DHT22;319;48.764;9.174;2022-11-15T14:11:28;15.80;99.20
674;DHT22;319;48.764;9.174;2022-11-15T14:14:14;15.60;99.50
674;DHT22;319;48.764;9.174;2022-11-15T14:16:43;15.40;99.90
674;DHT22;319;48.764;9.174;2022-11-15T14:19:12;15.30;99.90
674;DHT22;319;48.764;9.174;2022-11-15T14:22:12;15.10;99.90
674;DHT22;319;48.764;9.174;2022-11-15T14:24:41;14.90;99.90
674;DHT22;319;48.764;9.174;2022-11-15T14:27:23;14.80;99.90
674;DHT22;319;48.764;9.174;2022-11-15T14:29:52;14.80;99.90
674;DHT22;319;48.764;9.174;2022-11-15T14:32:20;14.80;99.90
674;DHT22;319;48.764;9.174;2022-11-15T14:34:48;14.80;99.90
674;DHT22;319;48.764;9.174;2022-11-15T14:37:21;14.80;99.90
674;DHT22;319;48.764;9.174;2022-11-15T14:39:48;14.90;99.90
674;DHT22;319;48.764;9.174;2022-11-15T14:42:15;15.00;99.40
674;DHT22;319;48.764;9.174;2022-11-15T14:44:42;15.00;99.20
674;DHT22;319;48.764;9.174;2022-11-15T14:47:10;15.10;98.70
674;DHT22;319;48.764;9.174;2022-11-15T14:49:37;15.20;98.70
674;DHT22;319;48.764;9.174;2022-11-15T14:52:11;15.20;98.80
674;DHT22;319;48.764;9.174;2022-11-15T14:54:43;15.20;99.10
674;DHT22;319;48.764;9.174;2022-11-15T14:57:09;15.30;98.60
674;DHT22;319;48.764;9.174;2022-11-15T14:59:36;15.30;98.70
674;DHT22;319;48.764;9.174;2022-11-15T15:02:10;15.30;98.40
674;DHT22;319;48.764;9.174;2022-11-15T15:04:41;15.30;98.30
674;DHT22;319;48.764;9.174;2022-11-15T15:07:08;15.40;98.10
674;DHT22;319;48.764;9.174;2022-11-15T15:09:34;15.40;98.10
674;DHT22;319;48.764;9.174;2022-11-15T15:12:01;15.40;98.30
674;DHT22;319;48.764;9.174;2022-11-15T15:14:28;15.30;98.10
674;DHT22;319;48.764;9.174;2022-11-15T15:16:55;15.30;97.90
674;DHT22;319;48.764;9.174;2022-11-15T15:19:23;15.30;97.90
674;DHT22;319;48.764;9.174;2022-11-15T15:21:49;15.30;98.00
674;DHT22;319;48.764;9.174;2022-11-15T15:24:16;15.30;98.10
674;DHT22;319;48.764;9.174;2022-11-15T15:26:43;15.20;98.30
674;DHT22;319;48.764;9.174;2022-11-15T15:29:10;15.10;98.60
674;DHT22;319;48.764;9.174;2022-11-15T15:31:37;15.00;98.60
674;DHT22;319;48.764;9.174;2022-11-15T15:34:04;14.90;99.10
674;DHT22;319;48.764;9.174;2022-11-15T15:36:32;14.80;99.30
674;DHT22;319;48.764;9.174;2022-11-15T15:38:59;14.90;99.90
674;DHT22;319;48.764;9.174;2022-11-15T15:41:26;14.70;99.80
674;DHT22;319;48.764;9.174;2022-11-15T15:43:52;14.70;99.90
674;DHT22;319;48.764;9.174;2022-11-15T15:46:20;14.70;99.90
674;DHT22;319;48.764;9.174;2022-11-15T15:48:47;14.70;99.90
674;DHT22;319;48.764;9.174;2022-11-15T15:51:14;14.70;99.90
674;DHT22;319;48.764;9.174;2022-11-15T15:53:42;14.70;99.90
674;DHT22;319;48.764;9.174;2022-11-15T15:56:09;14.70;99.80
674;DHT22;319;48.764;9.174;2022-11-15T15:58:35;14.70;99.80
674;DHT22;319;48.764;9.174;2022-11-15T16:01:02;14.70;99.80
674;DHT22;319;48.764;9.174;2022-11-15T16:03:29;14.70;99.70
674;DHT22;319;48.764;9.174;2022-11-15T16:05:56;14.70;99.50
674;DHT22;319;48.764;9.174;2022-11-15T16:08:26;14.80;99.30
674;DHT22;319;48.764;9.174;2022-11-15T16:10:56;14.80;99.50
674;DHT22;319;48.764;9.174;2022-11-15T16:13:23;14.80;98.80
674;DHT22;319;48.764;9.174;2022-11-15T16:15:52;14.90;99.10
674;DHT22;319;48.764;9.174;2022-11-15T16:18:20;14.80;98.80
674;DHT22;319;48.764;9.174;2022-11-15T16:20:48;14.90;98.70
674;DHT22;319;48.764;9.174;2022-11-15T16:23:18;14.90;98.60
674;DHT22;319;48.764;9.174;2022-11-15T16:25:50;14.90;98.40
674;DHT22;319;48.764;9.174;2022-11-15T16:28:21;14.90;98.40
674;DHT22;319;48.764;9.174;2022-11-15T16:30:49;14.90;98.30
674;DHT22;319;48.764;9.174;2022-11-15T16:33:16;14.90;98.10
674;DHT22;319;48.764;9.174;2022-11-15T16:35:45;14.90;98.20
674;DHT22;319;48.764;9.174;2022-11-15T16:38:14;14.90;98.30
674;DHT22;319;48.764;9.174;2022-11-15T16:40:41;15.00;98.30
674;DHT22;319;48.764;9.174;2022-11-15T16:43:08;15.00;98.20
674;DHT22;319;48.764;9.174;2022-11-15T16:45:36;15.00;98.10
674;DHT22;319;48.764;9.174;2022-11-15T16:48:06;15.00;98.00
674;DHT22;319;48.764;9.174;2022-11-15T16:50:34;15.00;97.90
674;DHT22;319;48.764;9.174;2022-11-15T16:53:05;15.00;97.90
674;DHT22;319;48.764;9.174;2022-11-15T16:55:32;15.10;98.00
674;DHT22;319;48.764;9.174;2022-11-15T16:58:01;15.10;98.00
674;DHT22;319;48.764;9.174;2022-11-15T17:00:28;15.10;98.10
674;DHT22;319;48.764;9.174;2022-11-15T17:02:57;15.10;98.00
674;DHT22;319;48.764;9.174;2022-11-15T17:05:23;15.10;98.10
674;DHT22;319;48.764;9.174;2022-11-15T17:07:52;15.20;98.50
674;DHT22;319;48.764;9.174;2022-11-15T17:10:19;15.10;98.60
674;DHT22;319;48.764;9.174;2022-11-15T17:12:46;15.20;98.50
674;DHT22;319;48.764;9.174;2022-11-15T17:15:13;15.20;98.40